Terminal Aerodrome Forecast
Issued by NWS

Home | Current Version | Previous Version | Text Only | Print | Product List | Glossary On
Versions: 1 2 3 4 5 6 7 8 9 10 11 12 13 14 15 16 17 18 19 20 21 22
301
FTUS44 KLZK 011800 CCA
TAFLLQ
TAF COR
KLLQ 011800Z 0118/0218 VRB05KT P6SM VCSH SCT025 BKN080
      TEMPO 0118/0121 BKN025
     FM012100 01006KT P6SM BKN040
     FM020000 35004KT P6SM VCSH SCT025 BKN050
     FM020600 36004KT P6SM VCSH OVC015 PROB30 0206/0212 4SM -RA BR
      OVC007
     FM021200 01006KT 5SM -RA BR VCTS OVC008CB=

USA.gov is the U.S. government's official web portal to all federal, state and local government web resources and services.